Time;durP1;ratioP1;P1;durP2;ratioP2;P2;SDS_P1;SDS_P2;PMS_P1;PMS_P2;Temp;Humidity;BMP_temperature;BMP_pressure;BME280_temperature;BME280_humidity;BME280_pressure;Samples;Min_cycle;Max_cycle;Signal;HPM_P1;HPM_P2
2023/12/20 00:01:14;;;;;;;4.80;4.40;;;;;;;;;;5008451;28;22095;-86
2023/12/20 00:03:52;;;;;;;4.97;4.47;;;;;;;;;;5008821;28;20505;-84
2023/12/20 00:06:41;;;;;;;5.00;4.60;;;;;;;;;;5008016;28;20435;-84
2023/12/20 00:09:12;;;;;;;5.17;4.47;;;;;;;;;;5014095;28;20471;-84
2023/12/20 00:11:57;;;;;;;5.53;4.90;;;;;;;;;;5027221;28;20476;-85
2023/12/20 00:14:32;;;;;;;5.87;5.30;;;;;;;;;;5027327;28;20494;-85
2023/12/20 00:17:04;;;;;;;5.40;4.90;;;;;;;;;;5031875;28;20481;-84
2023/12/20 00:19:40;;;;;;;4.83;4.43;;;;;;;;;;5031051;28;20466;-83
2023/12/20 00:22:15;;;;;;;4.93;4.20;;;;;;;;;;5026958;28;20451;-84
2023/12/20 00:24:48;;;;;;;5.03;4.53;;;;;;;;;;5026703;28;20472;-84
2023/12/20 00:27:21;;;;;;;5.70;4.63;;;;;;;;;;5005586;28;20493;-85
2023/12/20 00:29:54;;;;;;;4.87;4.47;;;;;;;;;;5010599;28;20471;-85
2023/12/20 00:32:24;;;;;;;6.53;5.57;;;;;;;;;;5010574;28;20463;-87
2023/12/20 00:34:56;;;;;;;4.70;4.27;;;;;;;;;;5005646;28;20489;-84
2023/12/20 00:37:36;;;;;;;4.20;3.90;;;;;;;;;;5005782;28;20520;-87
2023/12/20 00:40:09;;;;;;;5.20;4.80;;;;;;;;;;5008433;28;20468;-86
2023/12/20 00:42:42;;;;;;;4.50;4.10;;;;;;;;;;5000449;28;21582;-84
2023/12/20 00:45:13;;;;;;;4.10;3.70;;;;;;;;;;5004543;28;20464;-86
2023/12/20 00:47:44;;;;;;;3.53;3.23;;;;;;;;;;5014850;28;20462;-86
2023/12/20 00:50:22;;;;;;;4.27;3.87;;;;;;;;;;5015608;28;20453;-86
2023/12/20 00:52:56;;;;;;;2.90;2.70;;;;;;;;;;5017000;28;20506;-81
2023/12/20 00:55:28;;;;;;;3.47;3.00;;;;;;;;;;5015042;28;20465;-85
2023/12/20 00:57:55;;;;;;;4.00;3.00;;;;;;;;;;5010859;28;20780;-86
2023/12/20 01:00:31;;;;;;;3.27;3.00;;;;;;;;;;5006781;28;20463;-85
2023/12/20 01:03:02;;;;;;;2.97;2.77;;;;;;;;;;5008780;28;20488;-85
2023/12/20 01:05:41;;;;;;;3.63;3.03;;;;;;;;;;5009034;28;20448;-85
2023/12/20 01:08:16;;;;;;;4.90;2.90;;;;;;;;;;4995058;28;21025;-83
2023/12/20 01:10:46;;;;;;;2.90;2.60;;;;;;;;;;5012306;28;20818;-85
2023/12/20 01:13:16;;;;;;;3.73;3.00;;;;;;;;;;5013360;28;20468;-85
2023/12/20 01:15:55;;;;;;;3.30;3.00;;;;;;;;;;4996552;28;20524;-85
2023/12/20 01:18:30;;;;;;;3.37;3.03;;;;;;;;;;4999564;28;20961;-86
2023/12/20 01:21:24;;;;;;;4.13;3.10;;;;;;;;;;4996695;28;20470;-86
2023/12/20 01:24:11;;;;;;;4.73;3.80;;;;;;;;;;4988426;28;20482;-83
2023/12/20 01:26:44;;;;;;;3.63;3.33;;;;;;;;;;4998335;28;20540;-86
2023/12/20 01:29:46;;;;;;;4.90;4.10;;;;;;;;;;5000626;28;20447;-87
2023/12/20 01:32:33;;;;;;;4.10;3.33;;;;;;;;;;4999695;28;21709;-86
2023/12/20 01:35:09;;;;;;;5.50;3.67;;;;;;;;;;4993392;28;20453;-84
2023/12/20 01:37:58;;;;;;;4.80;3.70;;;;;;;;;;4997259;28;20472;-85
2023/12/20 01:40:29;;;;;;;5.93;4.03;;;;;;;;;;4997619;28;20829;-87
2023/12/20 01:43:00;;;;;;;6.20;4.20;;;;;;;;;;4997509;28;20474;-85
2023/12/20 01:45:33;;;;;;;7.40;4.67;;;;;;;;;;4997443;28;20447;-85
2023/12/20 01:48:04;;;;;;;5.20;3.97;;;;;;;;;;5002900;28;20461;-86
2023/12/20 01:50:37;;;;;;;6.20;4.20;;;;;;;;;;4986442;28;20456;-87
2023/12/20 01:53:15;;;;;;;5.53;4.53;;;;;;;;;;5002660;28;20505;-85
2023/12/20 01:55:48;;;;;;;7.43;4.97;;;;;;;;;;5002819;28;21189;-84
2023/12/20 01:58:20;;;;;;;7.97;6.07;;;;;;;;;;4997699;28;20491;-86
2023/12/20 02:00:50;;;;;;;8.60;6.13;;;;;;;;;;5000784;28;20472;-87
2023/12/20 02:03:21;;;;;;;8.33;6.53;;;;;;;;;;5000280;28;20874;-85
2023/12/20 02:05:52;;;;;;;12.27;8.03;;;;;;;;;;4999699;28;20500;-85
2023/12/20 02:08:27;;;;;;;6.87;6.17;;;;;;;;;;4998337;28;20488;-84
2023/12/20 02:11:01;;;;;;;8.23;6.40;;;;;;;;;;5001355;28;20513;-85
2023/12/20 02:13:33;;;;;;;13.67;6.40;;;;;;;;;;5000381;28;20479;-85
2023/12/20 02:16:04;;;;;;;8.30;5.33;;;;;;;;;;4999858;28;20456;-87
2023/12/20 02:18:31;;;;;;;9.03;5.63;;;;;;;;;;4987876;28;20462;-84
2023/12/20 02:21:07;;;;;;;7.60;5.10;;;;;;;;;;4997916;28;20469;-86
2023/12/20 02:23:36;;;;;;;9.60;5.07;;;;;;;;;;4995784;28;20478;-85
2023/12/20 02:26:20;;;;;;;;;;;;;;;;;;;;;
2023/12/20 02:32:34;;;;;;;7.73;2.67;;;;;;;;;;5000483;28;20534;-86
2023/12/20 02:35:47;;;;;;;;;;;;;;;;;;;;;
2023/12/20 02:42:06;;;;;;;9.30;4.40;;;;;;;;;;4957307;28;20428;-87
2023/12/20 02:44:53;;;;;;;7.10;2.67;;;;;;;;;;4950203;28;20504;-84
2023/12/20 02:50:17;;;;;;;5.47;2.70;;;;;;;;;;4962814;28;20437;-84
2023/12/20 02:53:00;;;;;;;3.60;2.00;;;;;;;;;;4959798;28;20475;-83
2023/12/20 02:58:41;;;;;;;7.77;2.93;;;;;;;;;;4971264;28;20489;-84
2023/12/20 03:01:42;;;;;;;4.23;1.90;;;;;;;;;;4961203;28;20556;-84
2023/12/20 03:04:25;;;;;;;;;;;;;;;;;;;;;
2023/12/20 03:10:25;;;;;;;6.80;2.77;;;;;;;;;;4958958;28;20493;-85
2023/12/20 03:13:28;;;;;;;3.00;1.80;;;;;;;;;;5050990;22;20554;-85
2023/12/20 03:15:57;;;;;;;4.00;1.90;;;;;;;;;;5022728;28;20509;-86
2023/12/20 03:22:03;;;;;;;9.00;2.37;;;;;;;;;;5015372;28;20970;-85
2023/12/20 03:24:49;;;;;;;4.30;1.90;;;;;;;;;;4990498;28;20534;-85
2023/12/20 03:28:31;;;;;;;4.70;1.53;;;;;;;;;;4986117;28;20503;-86
2023/12/20 03:31:26;;;;;;;7.00;2.70;;;;;;;;;;4931386;29;20501;-86
2023/12/20 03:51:06;;;;;;;4.90;2.47;;;;;;;;;;3146266;26;20609;-83
2023/12/20 03:53:49;;;;;;;4.27;1.80;;;;;;;;;;4960898;28;20540;-86
2023/12/20 03:56:21;;;;;;;8.63;2.10;;;;;;;;;;5037069;28;20457;-86
2023/12/20 03:59:04;;;;;;;7.03;2.00;;;;;;;;;;5033850;28;20487;-84
2023/12/20 04:01:52;;;;;;;5.83;2.47;;;;;;;;;;5028338;28;20464;-86
2023/12/20 04:04:32;;;;;;;6.10;2.40;;;;;;;;;;5027364;28;20476;-86
2023/12/20 04:07:12;;;;;;;6.70;2.07;;;;;;;;;;5033880;28;20459;-82
2023/12/20 04:09:48;;;;;;;4.10;2.10;;;;;;;;;;5031488;28;20799;-86
2023/12/20 04:12:26;;;;;;;4.57;2.10;;;;;;;;;;5025474;28;20448;-85
2023/12/20 04:15:03;;;;;;;13.93;2.40;;;;;;;;;;5033109;28;20890;-87
2023/12/20 04:17:38;;;;;;;3.37;2.27;;;;;;;;;;5026391;28;20547;-87
2023/12/20 04:20:25;;;;;;;9.27;2.57;;;;;;;;;;5022372;28;20555;-85
2023/12/20 04:23:04;;;;;;;6.17;2.30;;;;;;;;;;5048196;22;20508;-85
2023/12/20 04:25:39;;;;;;;3.47;1.70;;;;;;;;;;5009107;28;20485;-86
2023/12/20 04:28:14;;;;;;;6.03;2.23;;;;;;;;;;5010005;28;20496;-85
2023/12/20 04:30:58;;;;;;;3.30;2.10;;;;;;;;;;5026886;28;20438;-87
2023/12/20 04:33:35;;;;;;;2.97;1.97;;;;;;;;;;5030206;28;20496;-85
2023/12/20 04:36:20;;;;;;;3.60;2.30;;;;;;;;;;5010897;28;20442;-87
2023/12/20 04:39:12;;;;;;;7.63;3.30;;;;;;;;;;5024913;28;20436;-85
2023/12/20 04:41:57;;;;;;;12.57;3.53;;;;;;;;;;5028811;28;20450;-86
2023/12/20 04:44:47;;;;;;;8.90;2.90;;;;;;;;;;5011981;28;20493;-87
2023/12/20 04:47:17;;;;;;;6.83;2.23;;;;;;;;;;5027265;28;20440;-86
2023/12/20 04:49:56;;;;;;;9.60;3.30;;;;;;;;;;5022073;28;20446;-84
2023/12/20 04:52:29;;;;;;;4.67;2.10;;;;;;;;;;5002477;28;20454;-86
2023/12/20 04:55:08;;;;;;;5.70;2.37;;;;;;;;;;5025586;28;20457;-85
2023/12/20 04:57:54;;;;;;;4.23;2.30;;;;;;;;;;5007948;28;20860;-86
2023/12/20 05:00:28;;;;;;;7.00;2.73;;;;;;;;;;5018452;28;21608;-86
2023/12/20 05:03:17;;;;;;;4.10;2.50;;;;;;;;;;5023503;28;20548;-85
2023/12/20 05:06:11;;;;;;;6.70;2.47;;;;;;;;;;4989835;28;20472;-85
2023/12/20 05:08:55;;;;;;;7.80;2.97;;;;;;;;;;5012372;28;20457;-85
2023/12/20 05:11:30;;;;;;;6.03;2.10;;;;;;;;;;5006349;28;20557;-85
2023/12/20 05:14:11;;;;;;;6.77;2.50;;;;;;;;;;5011469;28;20835;-84
2023/12/20 05:16:43;;;;;;;5.13;2.50;;;;;;;;;;5033839;28;20460;-86
2023/12/20 05:19:41;;;;;;;4.23;2.43;;;;;;;;;;5014446;28;20460;-86
2023/12/20 05:22:35;;;;;;;8.47;3.17;;;;;;;;;;5011438;28;20504;-87
2023/12/20 05:25:19;;;;;;;7.83;2.40;;;;;;;;;;5015285;28;20488;-85
2023/12/20 05:27:52;;;;;;;7.33;2.77;;;;;;;;;;5010477;28;20454;-86
2023/12/20 05:30:26;;;;;;;10.47;3.07;;;;;;;;;;5011795;28;21666;-85
2023/12/20 05:36:09;;;;;;;7.30;3.33;;;;;;;;;;5025296;28;20483;-85
2023/12/20 05:39:05;;;;;;;8.00;3.03;;;;;;;;;;5030046;28;20477;-86
2023/12/20 05:42:01;;;;;;;5.90;2.57;;;;;;;;;;5028966;28;20462;-86
2023/12/20 05:44:45;;;;;;;8.60;3.17;;;;;;;;;;5031769;28;20484;-85
2023/12/20 05:47:45;;;;;;;7.80;3.83;;;;;;;;;;5024428;28;20461;-86
2023/12/20 05:50:40;;;;;;;6.00;2.53;;;;;;;;;;5016319;28;20560;-85
2023/12/20 05:56:13;;;;;;;9.47;3.00;;;;;;;;;;5029319;28;20517;-86
2023/12/20 05:59:06;;;;;;;7.17;2.70;;;;;;;;;;5044758;28;20449;-85
2023/12/20 06:02:07;;;;;;;4.53;2.90;;;;;;;;;;5042622;28;20466;-85
2023/12/20 06:05:03;;;;;;;;;;;;;;;;;;;;;
2023/12/20 06:07:49;;;;;;;7.23;2.73;;;;;;;;;;5039355;28;20505;-84
2023/12/20 06:10:41;;;;;;;5.43;2.23;;;;;;;;;;5043530;28;20462;-84
2023/12/20 06:13:35;;;;;;;7.10;2.77;;;;;;;;;;5045934;28;20431;-83
2023/12/20 06:16:12;;;;;;;8.67;2.47;;;;;;;;;;5037948;28;20449;-85
2023/12/20 06:18:54;;;;;;;7.10;2.90;;;;;;;;;;5029316;28;20460;-84
2023/12/20 06:21:54;;;;;;;9.43;2.77;;;;;;;;;;5032036;28;20425;-85
2023/12/20 06:24:33;;;;;;;13.93;3.60;;;;;;;;;;5031598;28;20492;-85
2023/12/20 06:27:29;;;;;;;11.00;3.07;;;;;;;;;;5032172;28;20442;-85
2023/12/20 06:30:42;;;;;;;5.90;2.50;;;;;;;;;;5048496;28;20519;-85
2023/12/20 06:33:21;;;;;;;8.90;5.70;;;;;;;;;;5034118;28;20466;-85
2023/12/20 06:36:23;;;;;;;7.87;3.40;;;;;;;;;;5044145;28;20468;-85
2023/12/20 06:38:59;;;;;;;11.10;3.57;;;;;;;;;;5048172;28;20457;-84
2023/12/20 06:41:59;;;;;;;10.07;3.17;;;;;;;;;;5030333;28;20700;-84
2023/12/20 06:44:43;;;;;;;10.20;2.90;;;;;;;;;;5033913;28;20500;-86
2023/12/20 06:47:23;;;;;;;11.10;3.37;;;;;;;;;;5032101;28;20450;-87
2023/12/20 06:50:15;;;;;;;6.37;2.90;;;;;;;;;;5037933;28;20435;-85
2023/12/20 06:55:52;;;;;;;10.97;3.53;;;;;;;;;;5170009;22;20525;-89
2023/12/20 06:59:06;;;;;;;7.73;3.47;;;;;;;;;;5026529;28;20530;-84
2023/12/20 07:01:45;;;;;;;17.60;3.70;;;;;;;;;;5022296;28;20474;-87
2023/12/20 07:04:48;;;;;;;7.33;2.67;;;;;;;;;;5050375;22;20689;-82
2023/12/20 07:07:24;;;;;;;5.80;2.30;;;;;;;;;;4989506;28;20542;-84
2023/12/20 07:10:34;;;;;;;11.80;2.50;;;;;;;;;;4985505;28;20510;-85
2023/12/20 07:13:22;;;;;;;6.27;2.80;;;;;;;;;;5005163;28;20498;-85
2023/12/20 07:16:10;;;;;;;5.20;3.20;;;;;;;;;;5013771;28;20458;-85
2023/12/20 07:18:52;;;;;;;4.83;3.70;;;;;;;;;;5013557;28;20455;-86
2023/12/20 07:24:54;;;;;;;9.03;3.17;;;;;;;;;;4945498;28;20486;-85
2023/12/20 07:27:45;;;;;;;11.10;3.30;;;;;;;;;;4993921;28;20504;-85
2023/12/20 07:30:21;;;;;;;9.60;4.23;;;;;;;;;;5008082;28;20450;-84
2023/12/20 07:35:33;;;;;;;8.80;3.53;;;;;;;;;;5004815;28;20557;-85
2023/12/20 07:38:12;;;;;;;7.43;3.50;;;;;;;;;;4993307;28;20490;-85
2023/12/20 07:40:46;;;;;;;8.90;3.80;;;;;;;;;;4996464;28;20450;-85
2023/12/20 07:43:49;;;;;;;9.90;3.77;;;;;;;;;;4996612;28;20546;-84
2023/12/20 07:46:43;;;;;;;7.10;3.20;;;;;;;;;;4955336;28;20490;-85
2023/12/20 07:49:23;;;;;;;5.70;3.20;;;;;;;;;;5013261;28;20824;-83
2023/12/20 07:52:25;;;;;;;9.83;3.70;;;;;;;;;;5015359;28;20468;-85
2023/12/20 07:55:04;;;;;;;7.67;3.87;;;;;;;;;;5018829;28;20479;-85
2023/12/20 07:57:40;;;;;;;10.97;3.70;;;;;;;;;;5040122;28;20454;-84
2023/12/20 08:03:44;;;;;;;10.80;3.17;;;;;;;;;;4974493;28;20484;-86
2023/12/20 08:06:44;;;;;;;;;;;;;;;;;;;;;
2023/12/20 08:09:57;;;;;;;11.27;4.20;;;;;;;;;;4982435;28;20436;-86
2023/12/20 08:20:38;;;;;;;7.90;3.20;;;;;;;;;;5007796;28;20478;-86
2023/12/20 08:23:16;;;;;;;11.87;3.77;;;;;;;;;;5001883;28;20990;-85
2023/12/20 08:26:46;;;;;;;11.40;3.47;;;;;;;;;;4978524;28;20502;-85
2023/12/20 08:29:43;;;;;;;6.97;3.37;;;;;;;;;;4964488;28;20467;-85
2023/12/20 08:32:51;;;;;;;;;;;;;;;;;;;;;
2023/12/20 08:35:44;;;;;;;5.63;2.87;;;;;;;;;;4999068;28;20455;-84
2023/12/20 08:38:41;;;;;;;;;;;;;;;;;;;;;
2023/12/20 08:42:06;;;;;;;12.63;3.93;;;;;;;;;;4994422;28;20443;-87
2023/12/20 08:45:40;;;;;;;;;;;;;;;;;;;;;
2023/12/20 08:49:08;;;;;;;;;;;;;;;;;;;;;
2023/12/20 09:06:15;;;;;;;;;;;;;;;;;;;;;
2023/12/20 09:08:51;;;;;;;8.27;3.00;;;;;;;;;;5006022;28;20465;-85
2023/12/20 09:14:57;;;;;;;9.50;3.17;;;;;;;;;;4974186;28;20471;-86
2023/12/20 09:20:47;;;;;;;7.03;3.30;;;;;;;;;;4989311;28;20470;-84
2023/12/20 09:23:30;;;;;;;8.83;2.97;;;;;;;;;;5229749;22;20525;-85
2023/12/20 09:26:06;;;;;;;6.93;2.90;;;;;;;;;;5012879;28;20480;-83
2023/12/20 09:29:17;;;;;;;7.60;2.97;;;;;;;;;;5009892;28;20458;-86
2023/12/20 09:32:12;;;;;;;7.40;3.07;;;;;;;;;;5003036;28;21372;-85
2023/12/20 09:38:25;;;;;;;;;;;;;;;;;;;;;
2023/12/20 09:41:16;;;;;;;5.37;2.70;;;;;;;;;;5028621;28;20814;-83
2023/12/20 09:43:49;;;;;;;5.23;2.57;;;;;;;;;;5020398;28;20468;-85
2023/12/20 09:46:40;;;;;;;7.20;2.90;;;;;;;;;;5023035;28;20496;-85
2023/12/20 09:49:12;;;;;;;8.60;2.90;;;;;;;;;;5024019;28;20806;-83
2023/12/20 09:51:48;;;;;;;7.40;2.63;;;;;;;;;;5028432;28;20540;-84
2023/12/20 09:54:44;;;;;;;5.33;3.07;;;;;;;;;;5021165;28;20598;-85
2023/12/20 09:57:31;;;;;;;9.50;3.03;;;;;;;;;;5025523;28;20465;-84
2023/12/20 10:00:14;;;;;;;11.87;3.13;;;;;;;;;;5031702;28;20455;-85
2023/12/20 10:03:19;;;;;;;;;;;;;;;;;;;;;
2023/12/20 10:06:24;;;;;;;8.23;2.93;;;;;;;;;;5016762;28;20527;-85
2023/12/20 10:09:28;;;;;;;8.30;2.73;;;;;;;;;;5023432;28;20914;-85
2023/12/20 10:12:24;;;;;;;6.70;2.70;;;;;;;;;;4956296;28;20452;-86
2023/12/20 10:15:07;;;;;;;9.30;3.20;;;;;;;;;;5108300;22;20495;-85
2023/12/20 10:17:55;;;;;;;12.23;2.80;;;;;;;;;;5002731;28;20470;-85
2023/12/20 10:21:09;;;;;;;10.27;2.60;;;;;;;;;;5004026;28;20447;-86
2023/12/20 10:24:01;;;;;;;10.57;2.57;;;;;;;;;;5033011;28;20458;-84
2023/12/20 10:27:06;;;;;;;7.23;2.20;;;;;;;;;;4962853;28;20499;-85
2023/12/20 10:29:44;;;;;;;9.30;2.50;;;;;;;;;;4994914;28;20473;-87
2023/12/20 10:41:41;;;;;;;9.30;2.70;;;;;;;;;;5028495;28;20447;-84
2023/12/20 10:49:51;;;;;;;6.90;2.93;;;;;;;;;;5029877;28;20549;-85
2023/12/20 10:53:01;;;;;;;7.00;2.47;;;;;;;;;;5030597;28;20489;-87
2023/12/20 10:56:27;;;;;;;4.37;2.03;;;;;;;;;;4994602;28;20436;-84
2023/12/20 10:59:23;;;;;;;6.23;2.50;;;;;;;;;;4990593;28;20793;-85
2023/12/20 11:02:06;;;;;;;4.77;2.50;;;;;;;;;;4996204;28;20510;-85
2023/12/20 11:05:08;;;;;;;15.63;3.30;;;;;;;;;;5015055;28;20791;-83
2023/12/20 11:08:19;;;;;;;6.00;2.23;;;;;;;;;;4994848;28;20515;-85
2023/12/20 11:11:32;;;;;;;7.73;2.70;;;;;;;;;;4999550;28;20469;-83
2023/12/20 11:14:30;;;;;;;7.97;2.47;;;;;;;;;;4989695;28;20909;-84
2023/12/20 11:17:21;;;;;;;9.20;2.40;;;;;;;;;;5007927;28;20484;-85
2023/12/20 11:20:26;;;;;;;10.27;3.43;;;;;;;;;;5006146;28;20480;-85
2023/12/20 11:23:33;;;;;;;;;;;;;;;;;;;;;
2023/12/20 11:26:20;;;;;;;4.40;2.00;;;;;;;;;;5019979;28;20495;-87
2023/12/20 11:29:09;;;;;;;5.27;2.37;;;;;;;;;;5002194;28;20459;-83
2023/12/20 11:31:56;;;;;;;10.43;2.33;;;;;;;;;;4955049;28;20444;-84
2023/12/20 11:34:40;;;;;;;11.63;3.97;;;;;;;;;;4997993;28;20479;-85
2023/12/20 11:37:25;;;;;;;4.67;1.80;;;;;;;;;;5004846;28;20440;-86
2023/12/20 11:40:13;;;;;;;5.70;2.30;;;;;;;;;;5003732;28;20546;-83
2023/12/20 11:54:06;;;;;;;7.47;2.87;;;;;;;;;;3748605;22;20508;-84
2023/12/20 11:57:02;;;;;;;3.57;2.10;;;;;;;;;;5031383;28;20442;-84
2023/12/20 11:59:45;;;;;;;6.80;2.23;;;;;;;;;;5026618;28;20508;-84
2023/12/20 12:02:23;;;;;;;8.67;2.40;;;;;;;;;;5018263;28;20785;-84
2023/12/20 12:04:58;;;;;;;8.80;2.00;;;;;;;;;;5001249;28;20489;-85
2023/12/20 12:07:43;;;;;;;9.80;2.73;;;;;;;;;;5024972;28;20471;-85
2023/12/20 12:10:30;;;;;;;10.33;3.10;;;;;;;;;;5010588;28;20431;-84
2023/12/20 12:13:39;;;;;;;5.00;2.50;;;;;;;;;;5011812;28;20490;-86
2023/12/20 12:16:31;;;;;;;10.43;2.83;;;;;;;;;;4996263;28;20436;-85
2023/12/20 12:19:43;;;;;;;8.70;3.30;;;;;;;;;;4966364;28;20466;-86
2023/12/20 12:26:46;;;;;;;6.57;2.57;;;;;;;;;;4949560;29;20472;-83
2023/12/20 12:29:37;;;;;;;5.63;2.53;;;;;;;;;;4923214;29;20473;-83
2023/12/20 12:32:25;;;;;;;6.70;2.60;;;;;;;;;;4964014;28;20452;-88
2023/12/20 12:34:59;;;;;;;8.20;2.80;;;;;;;;;;4986235;28;20534;-86
2023/12/20 12:37:28;;;;;;;9.50;2.43;;;;;;;;;;4997696;28;20862;-87
2023/12/20 12:40:05;;;;;;;3.57;2.27;;;;;;;;;;4993699;28;20459;-87
2023/12/20 12:42:40;;;;;;;10.50;4.17;;;;;;;;;;4948213;28;20598;-87
2023/12/20 12:45:27;;;;;;;6.23;2.80;;;;;;;;;;4950971;28;20465;-86
2023/12/20 12:48:33;;;;;;;8.70;3.33;;;;;;;;;;4941270;29;20535;-87
2023/12/20 12:55:32;;;;;;;;;;;;;;;;;;;;;
2023/12/20 13:02:03;;;;;;;6.17;2.70;;;;;;;;;;4811646;29;20481;-84
2023/12/20 13:05:07;;;;;;;;;;;;;;;;;;;;;
2023/12/20 13:07:52;;;;;;;8.40;2.87;;;;;;;;;;4871150;29;20488;-86
2023/12/20 13:10:33;;;;;;;7.13;2.67;;;;;;;;;;5426739;22;20482;-85
2023/12/20 13:13:04;;;;;;;7.87;2.53;;;;;;;;;;5153854;22;20498;-85
2023/12/20 13:15:40;;;;;;;8.20;3.67;;;;;;;;;;5033392;28;20440;-88
2023/12/20 13:18:08;;;;;;;9.33;2.90;;;;;;;;;;5019303;28;20458;-86
2023/12/20 13:20:55;;;;;;;8.67;3.47;;;;;;;;;;5030034;28;20489;-86
2023/12/20 13:27:01;;;;;;;8.67;3.50;;;;;;;;;;5021944;28;20484;-85
2023/12/20 13:29:29;;;;;;;7.70;2.50;;;;;;;;;;5002110;28;20527;-85
2023/12/20 13:32:31;;;;;;;6.00;3.50;;;;;;;;;;4994375;28;20478;-87
2023/12/20 13:35:22;;;;;;;9.97;3.17;;;;;;;;;;5018459;28;20490;-84
2023/12/20 13:38:06;;;;;;;15.03;3.93;;;;;;;;;;5030876;28;20547;-86
2023/12/20 13:40:51;;;;;;;9.47;3.27;;;;;;;;;;4983213;28;20449;-85
2023/12/20 13:43:29;;;;;;;10.90;3.20;;;;;;;;;;4980425;28;20448;-86
2023/12/20 13:45:59;;;;;;;6.73;3.03;;;;;;;;;;4968070;28;20514;-88
2023/12/20 13:48:51;;;;;;;8.23;2.87;;;;;;;;;;4994324;28;20452;-86
2023/12/20 13:51:24;;;;;;;6.23;2.80;;;;;;;;;;4991428;28;20468;-88
2023/12/20 13:54:02;;;;;;;8.67;2.97;;;;;;;;;;5021434;28;21703;-84
2023/12/20 13:56:37;;;;;;;7.13;3.07;;;;;;;;;;5004173;28;20454;-88
2023/12/20 13:59:26;;;;;;;5.10;2.30;;;;;;;;;;5021500;28;20454;-86
2023/12/20 14:02:10;;;;;;;5.17;2.77;;;;;;;;;;5022247;28;20454;-85
2023/12/20 14:07:41;;;;;;;4.20;2.83;;;;;;;;;;4952660;28;20493;-86
2023/12/20 14:10:30;;;;;;;9.07;2.60;;;;;;;;;;4954753;28;20460;-86
2023/12/20 14:16:16;;;;;;;5.40;2.60;;;;;;;;;;4941629;29;20588;-87
2023/12/20 14:19:15;;;;;;;7.97;2.80;;;;;;;;;;4925994;29;20477;-87
2023/12/20 14:22:06;;;;;;;;;;;;;;;;;;;;;
2023/12/20 14:24:57;;;;;;;4.87;2.37;;;;;;;;;;4943953;29;20469;-86
2023/12/20 14:27:52;;;;;;;6.17;2.70;;;;;;;;;;4918701;29;20497;-86
2023/12/20 14:33:27;;;;;;;5.00;2.30;;;;;;;;;;4921479;29;20473;-86
2023/12/20 14:36:11;;;;;;;4.00;2.40;;;;;;;;;;4935542;29;20473;-87
2023/12/20 14:38:47;;;;;;;8.27;4.40;;;;;;;;;;4918384;29;20921;-85
2023/12/20 14:41:30;;;;;;;5.20;2.60;;;;;;;;;;4926389;29;20959;-85
2023/12/20 14:44:04;;;;;;;5.23;2.60;;;;;;;;;;4933358;29;20495;-88
2023/12/20 14:47:04;;;;;;;3.50;3.20;;;;;;;;;;4919869;29;20493;-86
2023/12/20 14:49:42;;;;;;;5.33;2.20;;;;;;;;;;4935803;29;21166;-85
2023/12/20 14:52:24;;;;;;;6.77;3.13;;;;;;;;;;4928548;29;20501;-82
2023/12/20 14:55:03;;;;;;;9.70;4.13;;;;;;;;;;4932037;29;20458;-85
2023/12/20 14:57:40;;;;;;;4.87;2.53;;;;;;;;;;4935101;29;20480;-85
2023/12/20 15:00:28;;;;;;;3.97;2.37;;;;;;;;;;4934451;29;20475;-86
2023/12/20 15:03:17;;;;;;;5.20;2.60;;;;;;;;;;4936926;29;20493;-85
2023/12/20 15:06:27;;;;;;;7.10;2.30;;;;;;;;;;4933477;28;21074;-87
2023/12/20 15:09:29;;;;;;;2.40;2.07;;;;;;;;;;4938135;29;20487;-85
2023/12/20 15:16:01;;;;;;;4.60;2.20;;;;;;;;;;4929884;29;20468;-88
2023/12/20 15:18:46;;;;;;;3.60;2.30;;;;;;;;;;4932616;29;20472;-85
2023/12/20 15:21:19;;;;;;;4.13;2.40;;;;;;;;;;4935583;28;20985;-86
2023/12/20 15:24:05;;;;;;;4.27;2.80;;;;;;;;;;4930827;29;20509;-84
2023/12/20 15:26:59;;;;;;;3.57;2.57;;;;;;;;;;4919733;29;20478;-85
2023/12/20 15:32:57;;;;;;;6.13;2.20;;;;;;;;;;4920167;29;20490;-87
2023/12/20 15:35:33;;;;;;;4.47;2.50;;;;;;;;;;4940814;29;20821;-86
2023/12/20 15:38:39;;;;;;;7.70;2.73;;;;;;;;;;4946264;29;20469;-85
2023/12/20 15:41:27;;;;;;;8.67;2.50;;;;;;;;;;4938916;29;20455;-85
2023/12/20 15:43:59;;;;;;;7.80;2.53;;;;;;;;;;4951883;29;20533;-86
2023/12/20 15:46:36;;;;;;;4.00;2.50;;;;;;;;;;4948610;29;20485;-86
2023/12/20 15:49:17;;;;;;;7.37;3.50;;;;;;;;;;4933389;28;20454;-87
2023/12/20 15:52:02;;;;;;;6.50;2.93;;;;;;;;;;4947154;28;20479;-86
2023/12/20 15:54:47;;;;;;;6.40;2.83;;;;;;;;;;4933478;29;20529;-86
2023/12/20 15:57:26;;;;;;;4.27;2.83;;;;;;;;;;4932228;29;20501;-88
2023/12/20 15:59:59;;;;;;;11.43;2.80;;;;;;;;;;4926988;29;20473;-86
2023/12/20 16:02:26;;;;;;;6.10;3.27;;;;;;;;;;4952771;29;20833;-85
2023/12/20 16:05:09;;;;;;;8.80;3.80;;;;;;;;;;4932251;29;20448;-87
2023/12/20 16:07:45;;;;;;;12.17;3.87;;;;;;;;;;4937498;29;20561;-85
2023/12/20 16:10:27;;;;;;;4.80;3.33;;;;;;;;;;4926954;29;20458;-86
2023/12/20 16:12:55;;;;;;;5.73;2.73;;;;;;;;;;4926204;29;20508;-86
2023/12/20 16:15:34;;;;;;;9.23;3.80;;;;;;;;;;4925432;29;20989;-84
2023/12/20 16:18:14;;;;;;;3.33;2.93;;;;;;;;;;4937800;29;20502;-84
2023/12/20 16:20:44;;;;;;;6.57;3.70;;;;;;;;;;4938460;29;20449;-88
2023/12/20 16:23:14;;;;;;;9.77;3.43;;;;;;;;;;4934238;29;20522;-86
2023/12/20 16:25:53;;;;;;;6.70;3.17;;;;;;;;;;4953632;28;20457;-86
2023/12/20 16:28:32;;;;;;;7.67;3.57;;;;;;;;;;4946233;28;20442;-86
2023/12/20 16:31:09;;;;;;;3.90;2.73;;;;;;;;;;4949859;28;20447;-88
2023/12/20 16:33:50;;;;;;;8.50;3.50;;;;;;;;;;4958259;28;20509;-89
2023/12/20 16:36:48;;;;;;;5.93;3.00;;;;;;;;;;4954960;29;20459;-86
2023/12/20 16:39:28;;;;;;;5.33;3.70;;;;;;;;;;4944169;29;20518;-86
2023/12/20 16:42:00;;;;;;;10.37;4.10;;;;;;;;;;4949175;29;20457;-86
2023/12/20 16:44:50;;;;;;;10.80;3.23;;;;;;;;;;4968876;28;20455;-88
2023/12/20 16:47:27;;;;;;;13.63;3.90;;;;;;;;;;4955755;28;20477;-87
2023/12/20 16:50:06;;;;;;;7.60;3.30;;;;;;;;;;4959186;29;20458;-87
2023/12/20 16:52:51;;;;;;;5.60;3.20;;;;;;;;;;4950130;29;20434;-86
2023/12/20 16:55:28;;;;;;;5.20;3.10;;;;;;;;;;4942209;29;20467;-86
2023/12/20 16:58:10;;;;;;;8.17;3.57;;;;;;;;;;4956461;28;20474;-86
2023/12/20 17:00:43;;;;;;;6.27;3.67;;;;;;;;;;4948191;29;20457;-87
2023/12/20 17:03:19;;;;;;;4.87;3.40;;;;;;;;;;4963325;28;20474;-87
2023/12/20 17:05:55;;;;;;;9.10;3.70;;;;;;;;;;4948930;29;20470;-88
2023/12/20 17:08:38;;;;;;;4.20;3.23;;;;;;;;;;4945342;29;20451;-86
2023/12/20 17:11:11;;;;;;;7.20;3.40;;;;;;;;;;4949739;28;21057;-88
2023/12/20 17:13:54;;;;;;;;;;;;;;;;;;;;;
2023/12/20 17:16:41;;;;;;;8.30;3.37;;;;;;;;;;4954297;29;20458;-85
2023/12/20 17:19:09;;;;;;;3.83;3.13;;;;;;;;;;4959463;28;20540;-88
2023/12/20 17:21:45;;;;;;;6.03;2.60;;;;;;;;;;4948241;29;20789;-85
2023/12/20 17:24:30;;;;;;;7.23;3.40;;;;;;;;;;4927281;29;20478;-88
2023/12/20 17:27:04;;;;;;;8.60;4.07;;;;;;;;;;4950913;29;20492;-88
2023/12/20 17:29:36;;;;;;;9.37;3.40;;;;;;;;;;4945665;29;20473;-85
2023/12/20 17:32:30;;;;;;;6.90;5.20;;;;;;;;;;4952536;28;20473;-86
2023/12/20 17:35:14;;;;;;;10.13;3.37;;;;;;;;;;4938621;29;21026;-86
2023/12/20 17:37:53;;;;;;;6.80;3.50;;;;;;;;;;4954756;29;20455;-86
2023/12/20 17:40:39;;;;;;;13.23;4.07;;;;;;;;;;4959256;28;20462;-89
2023/12/20 17:43:15;;;;;;;9.77;4.17;;;;;;;;;;4955139;29;20576;-87
2023/12/20 17:45:59;;;;;;;6.93;4.00;;;;;;;;;;4940257;29;20527;-88
2023/12/20 17:49:04;;;;;;;7.73;3.60;;;;;;;;;;4949301;29;20450;-88
2023/12/20 17:51:49;;;;;;;5.50;3.23;;;;;;;;;;4955360;29;20472;-85
2023/12/20 17:54:19;;;;;;;4.67;3.27;;;;;;;;;;4961824;29;20478;-87
2023/12/20 17:56:52;;;;;;;4.20;3.50;;;;;;;;;;4963045;28;20461;-87
2023/12/20 17:59:36;;;;;;;8.43;3.33;;;;;;;;;;4937739;29;20470;-89
2023/12/20 18:02:10;;;;;;;6.70;3.23;;;;;;;;;;4950640;29;20477;-87
2023/12/20 18:04:57;;;;;;;6.13;3.30;;;;;;;;;;4961964;28;20524;-87
2023/12/20 18:10:44;;;;;;;7.03;3.60;;;;;;;;;;4951459;29;20446;-87
2023/12/20 18:13:15;;;;;;;5.50;3.20;;;;;;;;;;4974660;28;20481;-88
2023/12/20 18:19:22;;;;;;;4.97;3.17;;;;;;;;;;4903052;29;20456;-84
2023/12/20 18:22:03;;;;;;;6.77;3.70;;;;;;;;;;4945107;29;20454;-88
2023/12/20 18:24:50;;;;;;;9.80;3.50;;;;;;;;;;4934534;29;20986;-88
2023/12/20 18:27:28;;;;;;;9.80;3.47;;;;;;;;;;4938952;29;20487;-86
2023/12/20 18:30:13;;;;;;;7.40;3.87;;;;;;;;;;4930316;29;20460;-87
2023/12/20 18:32:52;;;;;;;6.10;3.20;;;;;;;;;;4945932;29;20788;-86
2023/12/20 18:35:33;;;;;;;5.70;2.90;;;;;;;;;;4946812;29;20525;-86
2023/12/20 18:38:17;;;;;;;3.40;2.50;;;;;;;;;;4938036;29;20476;-88
2023/12/20 18:40:47;;;;;;;4.67;2.77;;;;;;;;;;4948851;29;20458;-87
2023/12/20 18:43:24;;;;;;;4.87;2.50;;;;;;;;;;4927955;29;20480;-88
2023/12/20 18:46:02;;;;;;;8.30;3.07;;;;;;;;;;4949481;29;20456;-87
2023/12/20 18:48:46;;;;;;;7.40;3.43;;;;;;;;;;4947451;29;20499;-84
2023/12/20 18:51:35;;;;;;;7.47;3.87;;;;;;;;;;4932465;29;20454;-85
2023/12/20 18:54:08;;;;;;;6.03;3.70;;;;;;;;;;4928784;29;20837;-87
2023/12/20 18:56:49;;;;;;;7.57;3.40;;;;;;;;;;4931342;29;20465;-87
2023/12/20 18:59:28;;;;;;;3.63;3.30;;;;;;;;;;4945838;29;20422;-87
2023/12/20 19:02:13;;;;;;;9.10;3.27;;;;;;;;;;4951508;29;20509;-86
2023/12/20 19:04:48;;;;;;;6.87;2.93;;;;;;;;;;4962020;28;20493;-86
2023/12/20 19:10:03;;;;;;;7.37;3.20;;;;;;;;;;5360639;22;20567;-86
2023/12/20 19:12:40;;;;;;;3.90;3.17;;;;;;;;;;5017065;28;20593;-86
2023/12/20 19:15:13;;;;;;;7.17;2.63;;;;;;;;;;5018658;28;20460;-84